РПИ Ош

Руководство

Evgeny Vygornitsky*

Куратор
Инструкторы РПИ
Evgeny Vygornitsky (Supervisor)
Входит в состав
Центральная Азия

Диспетчеры РПИ

Диспетчер Рейтинг Допуски *

Аэропорты РПИ

ICAO Город Название Погода
UCFO Ош Ош UCFO 221200Z 22002MPS 190V250 9999 FEW050CB 21/14 Q1015 NOSIG